Terminal Aerodrome Forecast
Issued by NWS

Home | Current Version | Previous Version | Text Only | Print | Product List | Glossary On
Versions: 1 2 3 4 5 6 7 8 9 10 11 12 13 14 15 16 17
485
FTUS43 KICT 291140
TAFHUT
TAF
KHUT 291140Z 2912/3012 01016G24KT P6SM -SHRA VCTS OVC008CB
      TEMPO 2912/2916 4SM SHRA OVC005
     FM291600 01018G25KT P6SM -SHRA VCTS OVC008CB
     FM292200 36018G25KT P6SM VCTS OVC008CB=

USA.gov is the U.S. government's official web portal to all federal, state and local government web resources and services.